Time;durP1;ratioP1;P1;durP2;ratioP2;P2;SDS_P1;SDS_P2;PMS_P1;PMS_P2;Temp;Humidity;BMP_temperature;BMP_pressure;BME280_temperature;BME280_humidity;BME280_pressure;Samples;Min_cycle;Max_cycle;Signal;HPM_P1;HPM_P2
2024/01/18 00:00:06;;;;;;;11.60;5.57;;;;;;;;;;5044295;28;20044;-76
2024/01/18 00:02:31;;;;;;;7.90;5.47;;;;;;;;;;5033626;28;20041;-75
2024/01/18 00:04:56;;;;;;;12.32;6.03;;;;;;;;;;5033198;28;20059;-76
2024/01/18 00:07:22;;;;;;;11.45;6.00;;;;;;;;;;5037523;28;20043;-74
2024/01/18 00:09:47;;;;;;;13.52;6.25;;;;;;;;;;5001831;28;20060;-75
2024/01/18 00:12:13;;;;;;;9.00;4.70;;;;;;;;;;5027846;28;20041;-74
2024/01/18 00:14:38;;;;;;;10.45;5.00;;;;;;;;;;5036518;28;20041;-73
2024/01/18 00:17:03;;;;;;;11.73;5.70;;;;;;;;;;5027885;28;20037;-75
2024/01/18 00:19:29;;;;;;;12.52;6.18;;;;;;;;;;5020549;28;20033;-74
2024/01/18 00:21:54;;;;;;;10.48;5.15;;;;;;;;;;4997584;28;20033;-74
2024/01/18 00:24:20;;;;;;;9.20;4.10;;;;;;;;;;5035195;28;20131;-75
2024/01/18 00:26:45;;;;;;;10.68;5.43;;;;;;;;;;5045904;28;20072;-74
2024/01/18 00:29:11;;;;;;;9.20;5.57;;;;;;;;;;5014201;28;20100;-74
2024/01/18 00:31:36;;;;;;;9.65;5.97;;;;;;;;;;5019662;28;20067;-74
2024/01/18 00:34:01;;;;;;;11.77;5.57;;;;;;;;;;5026933;28;20036;-75
2024/01/18 00:36:27;;;;;;;15.45;6.93;;;;;;;;;;5028969;28;20040;-74
2024/01/18 00:38:53;;;;;;;16.60;7.22;;;;;;;;;;5035480;28;20046;-75
2024/01/18 00:41:18;;;;;;;8.93;3.40;;;;;;;;;;5040183;28;20063;-74
2024/01/18 00:43:43;;;;;;;7.45;5.20;;;;;;;;;;5024256;28;20042;-74
2024/01/18 00:46:09;;;;;;;11.98;6.57;;;;;;;;;;5021338;28;20045;-74
2024/01/18 00:48:34;;;;;;;10.57;5.43;;;;;;;;;;5024496;28;20117;-75
2024/01/18 00:50:59;;;;;;;4.57;3.20;;;;;;;;;;5019380;28;20055;-75
2024/01/18 00:53:25;;;;;;;12.20;6.88;;;;;;;;;;5025518;28;20026;-74
2024/01/18 00:55:50;;;;;;;10.38;4.43;;;;;;;;;;5025426;28;20585;-74
2024/01/18 00:58:16;;;;;;;11.57;6.38;;;;;;;;;;5028492;28;20045;-74
2024/01/18 01:00:41;;;;;;;11.02;6.05;;;;;;;;;;5029159;28;20556;-74
2024/01/18 01:03:06;;;;;;;10.20;5.50;;;;;;;;;;5018001;28;20488;-75
2024/01/18 01:05:31;;;;;;;11.52;6.10;;;;;;;;;;5012249;28;20191;-74
2024/01/18 01:07:57;;;;;;;12.07;6.05;;;;;;;;;;5031881;28;20037;-75
2024/01/18 01:10:22;;;;;;;11.88;5.90;;;;;;;;;;5028612;28;20052;-75
2024/01/18 01:12:47;;;;;;;9.27;5.80;;;;;;;;;;5017701;28;20179;-75
2024/01/18 01:15:13;;;;;;;10.88;5.68;;;;;;;;;;5030565;28;20060;-75
2024/01/18 01:17:38;;;;;;;11.48;4.60;;;;;;;;;;5033115;28;20041;-75
2024/01/18 01:20:09;;;;;;;16.25;7.65;;;;;;;;;;5016126;28;20044;-74
2024/01/18 01:22:34;;;;;;;10.73;6.07;;;;;;;;;;5004446;28;20041;-75
2024/01/18 01:25:00;;;;;;;10.57;5.63;;;;;;;;;;5022165;28;20048;-75
2024/01/18 01:27:26;;;;;;;14.48;7.15;;;;;;;;;;5026508;28;20037;-75
2024/01/18 01:29:51;;;;;;;11.05;5.18;;;;;;;;;;5025345;28;20734;-76
2024/01/18 01:32:16;;;;;;;12.07;5.82;;;;;;;;;;5030809;28;20081;-75
2024/01/18 01:34:42;;;;;;;12.27;6.43;;;;;;;;;;5004024;28;20139;-76
2024/01/18 01:37:07;;;;;;;12.18;5.82;;;;;;;;;;5038560;28;20045;-75
2024/01/18 01:39:32;;;;;;;12.13;6.03;;;;;;;;;;5035096;28;20037;-74
2024/01/18 01:41:58;;;;;;;10.50;5.28;;;;;;;;;;5032383;28;20263;-74
2024/01/18 01:44:23;;;;;;;7.90;3.95;;;;;;;;;;5033747;28;20041;-75
2024/01/18 01:46:48;;;;;;;11.95;5.55;;;;;;;;;;5029942;28;20547;-75
2024/01/18 01:49:14;;;;;;;13.00;6.68;;;;;;;;;;5025578;28;20045;-74
2024/01/18 01:51:48;;;;;;;8.38;4.68;;;;;;;;;;5025656;28;20041;-75
2024/01/18 01:54:16;;;;;;;12.00;5.97;;;;;;;;;;5025408;28;20061;-75
2024/01/18 01:56:43;;;;;;;11.82;6.13;;;;;;;;;;5029300;28;20067;-75
2024/01/18 01:59:10;;;;;;;10.07;6.15;;;;;;;;;;5022064;28;20041;-74
2024/01/18 02:01:37;;;;;;;12.88;7.10;;;;;;;;;;5034495;28;20244;-75
2024/01/18 02:04:03;;;;;;;13.27;6.75;;;;;;;;;;5024127;28;20437;-76
2024/01/18 02:06:30;;;;;;;16.08;6.88;;;;;;;;;;5022450;28;20040;-74
2024/01/18 02:08:55;;;;;;;11.25;6.20;;;;;;;;;;5031914;28;20035;-74
2024/01/18 02:11:21;;;;;;;10.38;6.13;;;;;;;;;;5026647;28;20045;-76
2024/01/18 02:13:48;;;;;;;13.77;7.05;;;;;;;;;;5034404;28;20033;-76
2024/01/18 02:16:13;;;;;;;13.20;6.25;;;;;;;;;;5033997;28;20045;-75
2024/01/18 02:18:39;;;;;;;14.38;7.07;;;;;;;;;;5024441;28;20240;-74
2024/01/18 02:21:07;;;;;;;17.67;7.38;;;;;;;;;;5024504;28;20115;-75
2024/01/18 02:23:34;;;;;;;21.85;10.02;;;;;;;;;;5034897;28;20040;-74
2024/01/18 02:25:59;;;;;;;16.55;8.13;;;;;;;;;;5030798;28;20136;-74
2024/01/18 02:28:25;;;;;;;16.52;9.15;;;;;;;;;;5019103;28;20112;-75
2024/01/18 02:30:50;;;;;;;18.20;9.25;;;;;;;;;;5005380;28;20091;-75
2024/01/18 02:33:15;;;;;;;19.50;9.15;;;;;;;;;;5030209;28;20118;-75
2024/01/18 02:35:41;;;;;;;19.83;9.35;;;;;;;;;;5034495;28;20060;-75
2024/01/18 02:38:07;;;;;;;17.73;8.68;;;;;;;;;;5024865;28;20108;-75
2024/01/18 02:40:32;;;;;;;18.45;9.77;;;;;;;;;;5029445;28;20045;-75
2024/01/18 02:42:57;;;;;;;19.80;8.40;;;;;;;;;;5032040;28;20048;-75
2024/01/18 02:45:24;;;;;;;17.42;8.98;;;;;;;;;;5023087;28;20136;-75
2024/01/18 02:47:49;;;;;;;14.52;7.60;;;;;;;;;;5028818;28;20064;-75
2024/01/18 02:50:15;;;;;;;14.88;7.28;;;;;;;;;;5033556;28;20056;-75
2024/01/18 02:52:40;;;;;;;13.93;7.72;;;;;;;;;;5029531;28;20825;-76
2024/01/18 02:55:07;;;;;;;16.95;9.25;;;;;;;;;;5035332;28;20120;-76
2024/01/18 02:57:32;;;;;;;17.20;8.73;;;;;;;;;;5033766;28;20459;-75
2024/01/18 02:59:58;;;;;;;17.92;8.77;;;;;;;;;;5021667;28;20183;-76
2024/01/18 03:02:23;;;;;;;17.08;8.57;;;;;;;;;;5027213;28;20363;-75
2024/01/18 03:04:49;;;;;;;15.93;7.88;;;;;;;;;;5021044;28;20047;-75
2024/01/18 03:07:14;;;;;;;17.20;8.23;;;;;;;;;;5035192;28;20052;-75
2024/01/18 03:09:39;;;;;;;17.05;8.73;;;;;;;;;;5031746;28;20036;-76
2024/01/18 03:12:05;;;;;;;19.13;8.82;;;;;;;;;;5033173;28;20123;-75
2024/01/18 03:14:31;;;;;;;17.45;8.60;;;;;;;;;;5022927;28;20033;-74
2024/01/18 03:16:56;;;;;;;16.80;8.48;;;;;;;;;;5037386;28;20040;-76
2024/01/18 03:19:21;;;;;;;17.08;8.73;;;;;;;;;;5029250;28;20061;-75
2024/01/18 03:21:47;;;;;;;18.50;8.68;;;;;;;;;;5025775;28;20460;-76
2024/01/18 03:24:12;;;;;;;17.45;9.43;;;;;;;;;;5028224;28;20122;-75
2024/01/18 03:26:38;;;;;;;20.13;10.05;;;;;;;;;;5037775;28;20082;-76
2024/01/18 03:29:03;;;;;;;8.73;5.55;;;;;;;;;;5016456;28;20179;-75
2024/01/18 03:31:28;;;;;;;17.45;8.95;;;;;;;;;;5022845;28;20583;-75
2024/01/18 03:33:54;;;;;;;11.35;6.80;;;;;;;;;;5028998;28;20497;-75
2024/01/18 03:36:21;;;;;;;14.88;7.72;;;;;;;;;;5019198;28;20111;-75
2024/01/18 03:38:46;;;;;;;17.05;7.95;;;;;;;;;;5032330;28;20041;-74
2024/01/18 03:41:14;;;;;;;23.02;10.90;;;;;;;;;;5023771;28;20055;-75
2024/01/18 03:43:40;;;;;;;18.55;9.90;;;;;;;;;;5012646;28;20131;-75
2024/01/18 03:46:05;;;;;;;18.98;9.80;;;;;;;;;;5021339;28;20045;-74
2024/01/18 03:48:31;;;;;;;19.00;10.48;;;;;;;;;;5030082;28;20033;-75
2024/01/18 03:50:56;;;;;;;17.05;9.93;;;;;;;;;;5031144;28;20132;-74
2024/01/18 03:53:21;;;;;;;25.35;10.52;;;;;;;;;;5035469;28;20097;-75
2024/01/18 03:55:47;;;;;;;19.45;10.15;;;;;;;;;;5026072;28;20049;-74
2024/01/18 03:58:12;;;;;;;24.08;10.82;;;;;;;;;;5022883;28;20037;-74
2024/01/18 04:00:39;;;;;;;24.05;11.75;;;;;;;;;;5031127;28;20120;-74
2024/01/18 04:03:05;;;;;;;23.45;10.55;;;;;;;;;;5031335;28;20044;-75
2024/01/18 04:05:30;;;;;;;23.80;11.13;;;;;;;;;;5040575;28;20634;-75
2024/01/18 04:07:56;;;;;;;20.23;9.88;;;;;;;;;;5028652;28;20037;-74
2024/01/18 04:10:21;;;;;;;21.52;10.25;;;;;;;;;;5030489;28;20124;-74
2024/01/18 04:12:46;;;;;;;21.30;10.32;;;;;;;;;;5020122;28;20037;-74
2024/01/18 04:15:12;;;;;;;23.20;11.10;;;;;;;;;;5038367;28;20048;-74
2024/01/18 04:17:37;;;;;;;21.17;10.02;;;;;;;;;;5042954;28;20585;-74
2024/01/18 04:20:05;;;;;;;22.20;11.13;;;;;;;;;;5034763;28;20453;-74
2024/01/18 04:22:31;;;;;;;19.33;10.50;;;;;;;;;;5034265;28;20657;-75
2024/01/18 04:24:57;;;;;;;19.30;9.80;;;;;;;;;;5042653;28;20598;-75
2024/01/18 04:27:22;;;;;;;19.73;9.98;;;;;;;;;;5034606;28;20151;-75
2024/01/18 04:29:48;;;;;;;20.77;10.10;;;;;;;;;;5013511;28;20030;-75
2024/01/18 04:32:13;;;;;;;23.20;10.90;;;;;;;;;;5032286;28;20037;-74
2024/01/18 04:34:38;;;;;;;23.48;10.57;;;;;;;;;;5034779;28;20545;-75
2024/01/18 04:37:04;;;;;;;20.23;10.63;;;;;;;;;;5028203;28;20687;-75
2024/01/18 04:39:29;;;;;;;22.33;10.68;;;;;;;;;;5044938;28;20044;-74
2024/01/18 04:41:55;;;;;;;19.48;10.45;;;;;;;;;;5022426;28;20616;-74
2024/01/18 04:44:21;;;;;;;21.17;11.38;;;;;;;;;;5034547;28;20037;-74
2024/01/18 04:46:47;;;;;;;21.55;10.85;;;;;;;;;;5032593;28;20048;-74
2024/01/18 04:49:12;;;;;;;22.35;11.55;;;;;;;;;;5038539;28;20040;-75
2024/01/18 04:51:39;;;;;;;30.10;11.70;;;;;;;;;;5037160;28;20047;-74
2024/01/18 04:54:04;;;;;;;24.50;11.90;;;;;;;;;;5027262;28;20033;-74
2024/01/18 04:56:30;;;;;;;26.75;12.20;;;;;;;;;;5028236;28;20033;-74
2024/01/18 04:58:56;;;;;;;26.52;12.45;;;;;;;;;;5032263;28;20124;-74
2024/01/18 05:01:21;;;;;;;24.95;13.20;;;;;;;;;;5035954;28;20070;-75
2024/01/18 05:03:47;;;;;;;26.10;13.27;;;;;;;;;;5042433;28;20751;-74
2024/01/18 05:06:12;;;;;;;29.73;12.95;;;;;;;;;;5032964;28;20119;-74
2024/01/18 05:08:38;;;;;;;24.70;12.27;;;;;;;;;;5039502;28;20048;-74
2024/01/18 05:11:03;;;;;;;25.98;12.27;;;;;;;;;;5023926;28;20124;-74
2024/01/18 05:13:28;;;;;;;28.73;11.63;;;;;;;;;;5043710;28;20033;-74
2024/01/18 05:15:55;;;;;;;23.25;11.95;;;;;;;;;;5037099;28;20043;-74
2024/01/18 05:18:20;;;;;;;22.38;11.80;;;;;;;;;;5044911;28;20044;-74
2024/01/18 05:20:46;;;;;;;15.43;7.63;;;;;;;;;;5035854;28;20063;-75
2024/01/18 05:23:11;;;;;;;19.63;9.00;;;;;;;;;;5040699;28;20063;-74
2024/01/18 05:25:37;;;;;;;21.05;10.15;;;;;;;;;;5027987;28;20415;-75
2024/01/18 05:28:02;;;;;;;21.98;10.35;;;;;;;;;;5035208;28;20741;-74
2024/01/18 05:30:28;;;;;;;19.40;10.07;;;;;;;;;;5035896;28;20472;-74
2024/01/18 05:32:54;;;;;;;20.17;9.32;;;;;;;;;;5036065;28;20048;-74
2024/01/18 05:35:19;;;;;;;18.67;9.65;;;;;;;;;;5034849;28;20132;-74
2024/01/18 05:37:44;;;;;;;18.02;9.68;;;;;;;;;;5028107;28;20116;-75
2024/01/18 05:40:10;;;;;;;24.20;11.48;;;;;;;;;;5015983;28;20033;-75
2024/01/18 05:42:36;;;;;;;24.42;12.88;;;;;;;;;;5034911;28;20041;-74
2024/01/18 05:45:01;;;;;;;24.60;11.40;;;;;;;;;;5032416;28;20112;-75
2024/01/18 05:47:26;;;;;;;22.42;10.98;;;;;;;;;;5035684;28;20509;-75
2024/01/18 05:49:52;;;;;;;22.73;10.73;;;;;;;;;;5036719;28;20029;-74
2024/01/18 05:52:17;;;;;;;17.17;9.10;;;;;;;;;;5034522;28;20032;-74
2024/01/18 05:54:43;;;;;;;20.60;10.52;;;;;;;;;;5024202;28;20106;-75
2024/01/18 05:57:08;;;;;;;24.52;11.77;;;;;;;;;;5019035;28;20080;-75
2024/01/18 05:59:33;;;;;;;23.63;10.15;;;;;;;;;;5042203;28;20132;-75
2024/01/18 06:01:59;;;;;;;22.88;10.13;;;;;;;;;;5032014;28;20040;-74
2024/01/18 06:04:25;;;;;;;18.02;8.95;;;;;;;;;;5035240;28;20528;-75
2024/01/18 06:06:51;;;;;;;18.70;8.55;;;;;;;;;;5041296;28;20040;-75
2024/01/18 06:09:17;;;;;;;17.45;8.70;;;;;;;;;;5026107;28;20045;-74
2024/01/18 06:11:44;;;;;;;17.05;7.32;;;;;;;;;;5027950;28;20044;-74
2024/01/18 06:14:09;;;;;;;12.55;7.03;;;;;;;;;;5029474;28;20048;-75
2024/01/18 06:16:34;;;;;;;14.35;6.60;;;;;;;;;;5038241;28;20045;-74
2024/01/18 06:19:00;;;;;;;14.45;6.60;;;;;;;;;;5040987;28;20037;-75
2024/01/18 06:21:25;;;;;;;17.73;7.10;;;;;;;;;;5027696;28;20036;-74
2024/01/18 06:23:50;;;;;;;21.58;9.02;;;;;;;;;;5018687;28;20083;-75
2024/01/18 06:26:16;;;;;;;21.00;9.27;;;;;;;;;;5038321;28;20500;-74
2024/01/18 06:28:42;;;;;;;17.90;8.98;;;;;;;;;;5036513;28;20036;-75
2024/01/18 06:31:08;;;;;;;19.60;8.70;;;;;;;;;;5043392;28;20040;-75
2024/01/18 06:33:33;;;;;;;17.77;8.05;;;;;;;;;;5037014;28;20163;-75
2024/01/18 06:35:59;;;;;;;17.10;9.73;;;;;;;;;;5035371;28;20191;-74
2024/01/18 06:38:24;;;;;;;18.23;9.75;;;;;;;;;;5015246;28;20041;-74
2024/01/18 06:40:50;;;;;;;17.75;9.70;;;;;;;;;;5033734;28;20152;-76
2024/01/18 06:43:15;;;;;;;20.45;9.55;;;;;;;;;;5032102;28;20036;-75
2024/01/18 06:45:41;;;;;;;20.58;10.18;;;;;;;;;;5033685;28;20464;-74
2024/01/18 06:48:06;;;;;;;19.88;9.77;;;;;;;;;;5046910;28;20036;-75
2024/01/18 06:50:33;;;;;;;17.05;9.10;;;;;;;;;;5040699;28;20036;-75
2024/01/18 06:52:59;;;;;;;14.50;8.25;;;;;;;;;;5031155;28;20090;-74
2024/01/18 06:55:25;;;;;;;16.50;9.18;;;;;;;;;;5040227;28;20643;-74
2024/01/18 06:57:50;;;;;;;17.70;8.82;;;;;;;;;;5033825;28;20094;-74
2024/01/18 07:00:25;;;;;;;15.70;7.55;;;;;;;;;;5035097;28;20064;-75
2024/01/18 07:02:51;;;;;;;18.15;8.73;;;;;;;;;;5024294;28;20045;-74
2024/01/18 07:05:17;;;;;;;16.40;7.80;;;;;;;;;;5015211;28;20076;-74
2024/01/18 07:07:42;;;;;;;17.50;9.60;;;;;;;;;;5028411;28;20049;-73
2024/01/18 07:10:08;;;;;;;18.75;9.57;;;;;;;;;;5017356;28;20037;-75
2024/01/18 07:12:33;;;;;;;22.85;11.25;;;;;;;;;;5019649;28;20159;-75
2024/01/18 07:14:59;;;;;;;27.77;12.90;;;;;;;;;;5023894;28;20038;-74
2024/01/18 07:17:26;;;;;;;25.13;11.25;;;;;;;;;;5035790;28;20504;-75
2024/01/18 07:19:52;;;;;;;23.25;10.27;;;;;;;;;;5021631;28;20037;-75
2024/01/18 07:22:18;;;;;;;19.13;9.13;;;;;;;;;;5008847;28;20044;-74
2024/01/18 07:24:43;;;;;;;20.35;10.18;;;;;;;;;;5021491;28;20589;-75
2024/01/18 07:27:09;;;;;;;19.55;9.50;;;;;;;;;;5018056;28;20116;-75
2024/01/18 07:29:36;;;;;;;19.58;10.32;;;;;;;;;;5025243;28;20037;-75
2024/01/18 07:32:02;;;;;;;19.92;10.70;;;;;;;;;;5029505;28;20817;-74
2024/01/18 07:34:27;;;;;;;23.98;12.23;;;;;;;;;;5019235;28;20080;-74
2024/01/18 07:36:54;;;;;;;38.60;21.20;;;;;;;;;;5027859;28;20045;-75
2024/01/18 07:39:20;;;;;;;24.52;13.18;;;;;;;;;;5010488;28;20534;-75
2024/01/18 07:41:45;;;;;;;25.10;14.52;;;;;;;;;;5024442;28;20047;-74
2024/01/18 07:44:11;;;;;;;20.95;11.15;;;;;;;;;;5029678;28;20045;-75
2024/01/18 07:46:37;;;;;;;23.50;13.75;;;;;;;;;;5014001;28;20048;-75
2024/01/18 07:49:03;;;;;;;23.95;13.18;;;;;;;;;;5016290;28;20103;-75
2024/01/18 07:51:29;;;;;;;19.85;11.20;;;;;;;;;;5029474;28;20116;-74
2024/01/18 07:53:54;;;;;;;21.80;10.07;;;;;;;;;;5026543;28;20541;-74
2024/01/18 07:56:19;;;;;;;22.10;10.70;;;;;;;;;;5024152;28;20123;-75
2024/01/18 07:58:45;;;;;;;20.50;10.13;;;;;;;;;;5022094;28;20704;-76
2024/01/18 08:01:10;;;;;;;21.88;10.50;;;;;;;;;;5027247;28;20064;-74
2024/01/18 08:03:35;;;;;;;21.13;10.75;;;;;;;;;;5016200;28;20433;-74
2024/01/18 08:06:01;;;;;;;21.30;11.07;;;;;;;;;;5000998;28;20059;-75
2024/01/18 08:08:26;;;;;;;19.52;11.23;;;;;;;;;;5023372;28;20533;-74
2024/01/18 08:10:52;;;;;;;19.60;10.23;;;;;;;;;;5010928;28;20048;-74
2024/01/18 08:13:17;;;;;;;20.75;10.25;;;;;;;;;;5025220;28;20037;-74
2024/01/18 08:15:42;;;;;;;19.42;10.13;;;;;;;;;;5024367;28;20068;-74
2024/01/18 08:18:08;;;;;;;21.83;10.00;;;;;;;;;;5019728;28;20045;-75
2024/01/18 08:20:33;;;;;;;18.88;9.45;;;;;;;;;;5023968;28;20044;-74
2024/01/18 08:22:59;;;;;;;18.02;8.20;;;;;;;;;;5022932;28;20044;-73
2024/01/18 08:25:24;;;;;;;12.73;6.75;;;;;;;;;;5030484;28;20037;-75
2024/01/18 08:27:54;;;;;;;19.58;8.82;;;;;;;;;;5015090;28;20051;-74
2024/01/18 08:30:20;;;;;;;10.77;6.68;;;;;;;;;;5032841;28;20032;-73
2024/01/18 08:32:45;;;;;;;17.83;8.88;;;;;;;;;;5016804;28;20038;-74
2024/01/18 08:35:10;;;;;;;17.02;8.68;;;;;;;;;;5011790;28;20139;-73
2024/01/18 08:37:37;;;;;;;17.50;9.88;;;;;;;;;;5022266;28;20108;-74
2024/01/18 08:40:04;;;;;;;23.55;11.95;;;;;;;;;;5033922;28;20045;-74
2024/01/18 08:42:29;;;;;;;37.55;17.33;;;;;;;;;;5023218;28;20055;-75
2024/01/18 08:44:54;;;;;;;32.50;16.67;;;;;;;;;;5030361;28;20038;-73
2024/01/18 08:47:21;;;;;;;32.38;15.68;;;;;;;;;;5040516;28;20053;-74
2024/01/18 08:49:47;;;;;;;34.17;16.33;;;;;;;;;;5038202;28;20550;-73
2024/01/18 08:52:12;;;;;;;37.53;16.65;;;;;;;;;;5039859;28;20044;-75
2024/01/18 08:54:38;;;;;;;32.70;15.98;;;;;;;;;;5031868;28;20045;-73
2024/01/18 08:57:03;;;;;;;41.70;18.42;;;;;;;;;;5038445;28;20139;-74
2024/01/18 08:59:28;;;;;;;29.40;14.85;;;;;;;;;;5030601;28;20045;-75
2024/01/18 09:01:55;;;;;;;31.85;15.82;;;;;;;;;;5024721;28;20052;-74
2024/01/18 09:04:20;;;;;;;30.25;16.33;;;;;;;;;;5028200;28;20041;-74
2024/01/18 09:06:45;;;;;;;32.28;14.77;;;;;;;;;;5037255;28;20083;-74
2024/01/18 09:09:11;;;;;;;25.08;13.38;;;;;;;;;;5044297;28;20441;-74
2024/01/18 09:11:37;;;;;;;29.67;13.98;;;;;;;;;;5027476;28;20029;-74
2024/01/18 09:14:03;;;;;;;32.53;15.98;;;;;;;;;;5012150;28;20096;-75
2024/01/18 09:16:30;;;;;;;29.33;15.50;;;;;;;;;;5029986;28;20048;-74
2024/01/18 09:18:56;;;;;;;25.50;12.60;;;;;;;;;;5035996;28;20076;-74
2024/01/18 09:21:21;;;;;;;17.15;8.38;;;;;;;;;;5016280;28;20690;-73
2024/01/18 09:23:47;;;;;;;38.25;14.90;;;;;;;;;;5015882;28;20048;-75
2024/01/18 09:26:12;;;;;;;31.80;13.93;;;;;;;;;;5027562;28;20083;-74
2024/01/18 09:28:38;;;;;;;49.22;14.93;;;;;;;;;;5005329;28;20062;-73
2024/01/18 09:31:03;;;;;;;27.55;10.75;;;;;;;;;;5036361;28;20202;-74
2024/01/18 09:33:28;;;;;;;47.08;16.10;;;;;;;;;;5033793;28;20079;-74
2024/01/18 09:35:54;;;;;;;39.65;16.13;;;;;;;;;;5031501;28;20589;-74
2024/01/18 09:38:19;;;;;;;68.43;22.92;;;;;;;;;;5028491;28;20041;-74
2024/01/18 09:40:46;;;;;;;17.23;8.90;;;;;;;;;;5018712;28;20064;-74
2024/01/18 09:43:15;;;;;;;59.25;25.13;;;;;;;;;;5018041;28;20040;-73
2024/01/18 09:45:45;;;;;;;39.10;17.45;;;;;;;;;;5024523;28;20144;-75
2024/01/18 09:48:12;;;;;;;36.83;17.05;;;;;;;;;;5011540;28;20083;-75
2024/01/18 09:50:44;;;;;;;54.22;23.40;;;;;;;;;;5026100;28;20048;-74
2024/01/18 09:53:13;;;;;;;49.72;21.83;;;;;;;;;;5030582;28;20059;-75
2024/01/18 09:55:39;;;;;;;45.08;19.17;;;;;;;;;;5015362;28;20098;-73
2024/01/18 09:58:11;;;;;;;58.08;26.10;;;;;;;;;;5032266;28;20112;-73
2024/01/18 10:00:42;;;;;;;29.98;14.02;;;;;;;;;;5015189;28;20092;-75
2024/01/18 10:03:07;;;;;;;28.60;14.48;;;;;;;;;;5042804;28;20573;-74
2024/01/18 10:05:33;;;;;;;19.88;9.38;;;;;;;;;;5028290;28;20125;-74
2024/01/18 10:07:58;;;;;;;91.88;38.67;;;;;;;;;;5024972;28;20029;-74
2024/01/18 10:10:24;;;;;;;76.07;33.08;;;;;;;;;;5009515;28;20081;-74
2024/01/18 10:12:50;;;;;;;43.70;19.90;;;;;;;;;;5026888;28;20060;-75
2024/01/18 10:15:33;;;;;;;27.77;12.35;;;;;;;;;;5030667;28;20482;-74
2024/01/18 10:18:00;;;;;;;48.00;23.17;;;;;;;;;;5026723;28;20048;-74
2024/01/18 10:20:26;;;;;;;60.10;29.60;;;;;;;;;;5031451;28;20040;-75
2024/01/18 10:22:53;;;;;;;17.60;9.13;;;;;;;;;;5022699;28;20048;-75
2024/01/18 10:25:22;;;;;;;37.03;19.80;;;;;;;;;;5037360;28;20058;-75
2024/01/18 10:27:51;;;;;;;34.22;17.85;;;;;;;;;;5032173;28;20033;-74
2024/01/18 10:30:16;;;;;;;31.30;16.80;;;;;;;;;;5025189;28;22116;-75
2024/01/18 10:32:45;;;;;;;24.00;12.63;;;;;;;;;;5032532;28;20071;-74
2024/01/18 10:35:21;;;;;;;19.92;10.27;;;;;;;;;;5022157;28;20037;-74
2024/01/18 10:37:48;;;;;;;32.17;16.30;;;;;;;;;;5032401;28;20037;-74
2024/01/18 10:40:18;;;;;;;23.70;13.38;;;;;;;;;;5029818;28;20286;-74
2024/01/18 10:42:45;;;;;;;23.88;13.20;;;;;;;;;;5024864;28;20044;-74
2024/01/18 10:45:12;;;;;;;18.65;10.93;;;;;;;;;;5015726;28;20040;-74
2024/01/18 10:47:37;;;;;;;23.85;14.23;;;;;;;;;;5025145;28;20605;-75
2024/01/18 10:50:04;;;;;;;22.20;11.57;;;;;;;;;;5032647;28;20033;-74
2024/01/18 10:52:30;;;;;;;23.08;13.48;;;;;;;;;;5024446;28;20068;-74
2024/01/18 10:54:58;;;;;;;46.63;28.50;;;;;;;;;;5015247;28;20064;-74
2024/01/18 10:57:24;;;;;;;21.73;14.63;;;;;;;;;;5029127;28;20040;-75
2024/01/18 10:59:52;;;;;;;19.92;12.10;;;;;;;;;;5014997;28;20037;-75
2024/01/18 11:02:18;;;;;;;24.90;15.30;;;;;;;;;;5021578;28;20106;-74
2024/01/18 11:04:46;;;;;;;20.67;11.20;;;;;;;;;;5028204;28;20112;-74
2024/01/18 11:07:12;;;;;;;25.95;11.40;;;;;;;;;;5029048;28;20912;-74
2024/01/18 11:09:39;;;;;;;23.40;12.98;;;;;;;;;;5028140;28;20685;-75
2024/01/18 11:12:06;;;;;;;27.25;13.30;;;;;;;;;;5033295;28;20036;-75
2024/01/18 11:14:32;;;;;;;20.85;11.45;;;;;;;;;;5030197;28;20033;-74
2024/01/18 11:17:19;;;;;;;13.23;6.35;;;;;;;;;;5022162;28;20046;-75
2024/01/18 11:19:45;;;;;;;26.63;13.38;;;;;;;;;;5030172;28;20057;-74
2024/01/18 11:22:22;;;;;;;21.83;11.98;;;;;;;;;;5028027;28;20087;-75
2024/01/18 11:24:47;;;;;;;25.85;12.57;;;;;;;;;;5029591;28;20162;-75
2024/01/18 11:27:21;;;;;;;15.32;7.07;;;;;;;;;;5008130;28;20680;-75
2024/01/18 11:29:49;;;;;;;16.80;8.25;;;;;;;;;;5015666;28;20021;-74
2024/01/18 11:32:17;;;;;;;15.52;8.68;;;;;;;;;;5027156;28;20036;-74
2024/01/18 11:34:45;;;;;;;25.63;11.27;;;;;;;;;;5015022;28;20465;-75
2024/01/18 11:37:14;;;;;;;21.33;10.55;;;;;;;;;;5021429;28;20111;-75
2024/01/18 11:39:48;;;;;;;21.25;10.60;;;;;;;;;;5017029;28;20130;-73
2024/01/18 11:42:28;;;;;;;26.23;12.85;;;;;;;;;;5020473;28;20120;-74
2024/01/18 11:44:56;;;;;;;24.33;11.98;;;;;;;;;;5033544;28;20106;-75
2024/01/18 11:47:28;;;;;;;27.77;13.00;;;;;;;;;;5030876;28;20052;-74
2024/01/18 11:49:54;;;;;;;22.70;9.27;;;;;;;;;;5030699;28;20091;-74
2024/01/18 11:52:23;;;;;;;10.93;4.95;;;;;;;;;;5034874;28;20071;-75
2024/01/18 11:54:52;;;;;;;17.58;9.52;;;;;;;;;;5009283;28;20037;-74
2024/01/18 11:57:18;;;;;;;26.38;13.10;;;;;;;;;;5031230;28;20040;-75
2024/01/18 11:59:46;;;;;;;25.02;10.93;;;;;;;;;;5030423;28;20041;-75
2024/01/18 12:02:12;;;;;;;23.20;9.90;;;;;;;;;;5025993;28;20040;-74
2024/01/18 12:04:38;;;;;;;29.52;14.57;;;;;;;;;;5024099;28;20047;-74
2024/01/18 12:07:05;;;;;;;35.53;20.35;;;;;;;;;;5022667;28;20049;-74
2024/01/18 12:09:31;;;;;;;30.27;15.48;;;;;;;;;;5030959;28;20047;-74
2024/01/18 12:11:57;;;;;;;31.58;16.80;;;;;;;;;;5017750;28;20033;-76
2024/01/18 12:14:23;;;;;;;27.95;13.98;;;;;;;;;;5018237;28;20096;-75
2024/01/18 12:16:49;;;;;;;23.38;11.43;;;;;;;;;;5025073;28;20045;-75
2024/01/18 12:19:31;;;;;;;23.02;12.32;;;;;;;;;;5029934;28;20055;-75
2024/01/18 12:21:57;;;;;;;19.65;9.68;;;;;;;;;;4997415;28;20128;-75
2024/01/18 12:24:22;;;;;;;5.65;3.83;;;;;;;;;;5018434;28;20063;-75
2024/01/18 12:26:48;;;;;;;19.15;10.05;;;;;;;;;;5026705;28;20041;-74
2024/01/18 12:29:14;;;;;;;18.75;9.50;;;;;;;;;;5024478;28;20041;-75
2024/01/18 12:31:40;;;;;;;22.70;11.82;;;;;;;;;;5009972;28;20034;-74
2024/01/18 12:34:07;;;;;;;12.55;7.35;;;;;;;;;;5019784;28;20057;-74
2024/01/18 12:36:33;;;;;;;20.50;9.02;;;;;;;;;;4999352;28;20041;-74
2024/01/18 12:38:59;;;;;;;23.25;10.10;;;;;;;;;;5038052;28;20032;-74
2024/01/18 12:41:24;;;;;;;22.15;10.00;;;;;;;;;;5016808;28;20196;-74
2024/01/18 12:43:50;;;;;;;12.57;6.15;;;;;;;;;;5011512;28;20120;-75
2024/01/18 12:46:15;;;;;;;17.15;7.80;;;;;;;;;;5006126;28;20079;-75
2024/01/18 12:48:41;;;;;;;11.52;5.10;;;;;;;;;;5026753;28;20640;-75
2024/01/18 12:51:07;;;;;;;10.48;5.72;;;;;;;;;;4999768;28;20594;-75
2024/01/18 12:53:32;;;;;;;18.17;7.57;;;;;;;;;;5020100;28;20030;-74
2024/01/18 12:55:58;;;;;;;1.88;1.52;;;;;;;;;;5038001;28;20033;-75
2024/01/18 12:58:23;;;;;;;11.18;5.60;;;;;;;;;;5022339;28;20666;-74
2024/01/18 13:00:51;;;;;;;11.63;6.30;;;;;;;;;;5031171;28;20048;-75
2024/01/18 13:03:16;;;;;;;9.27;5.32;;;;;;;;;;5022870;28;20612;-74
2024/01/18 13:05:43;;;;;;;15.18;7.43;;;;;;;;;;5028141;28;20071;-75
2024/01/18 13:08:09;;;;;;;13.60;7.85;;;;;;;;;;5029086;28;20090;-74
2024/01/18 13:10:35;;;;;;;13.60;8.63;;;;;;;;;;5030484;28;20041;-75
2024/01/18 13:13:01;;;;;;;12.57;4.47;;;;;;;;;;5001055;28;20154;-75
2024/01/18 13:15:26;;;;;;;10.70;6.30;;;;;;;;;;5020774;28;20029;-74
2024/01/18 13:17:52;;;;;;;7.82;4.40;;;;;;;;;;5004573;28;20113;-74
2024/01/18 13:20:17;;;;;;;14.05;7.93;;;;;;;;;;5003400;28;20095;-75
2024/01/18 13:22:43;;;;;;;13.63;7.10;;;;;;;;;;5016107;28;20033;-75
2024/01/18 13:25:08;;;;;;;13.30;7.10;;;;;;;;;;5029036;28;20053;-75
2024/01/18 13:27:34;;;;;;;19.85;9.45;;;;;;;;;;5030044;28;20041;-74
2024/01/18 13:29:59;;;;;;;19.38;7.47;;;;;;;;;;5026954;28;20056;-75
2024/01/18 13:32:25;;;;;;;17.92;7.65;;;;;;;;;;5020880;28;20421;-74
2024/01/18 13:34:50;;;;;;;11.55;5.45;;;;;;;;;;5011660;28;20071;-75
2024/01/18 13:37:16;;;;;;;9.00;4.95;;;;;;;;;;5021676;28;20041;-75
2024/01/18 13:39:41;;;;;;;21.70;10.55;;;;;;;;;;5018050;28;20033;-75
2024/01/18 13:42:07;;;;;;;20.98;10.48;;;;;;;;;;5022221;28;20042;-76
2024/01/18 13:44:32;;;;;;;22.92;10.88;;;;;;;;;;5023705;28;20053;-75
2024/01/18 13:46:58;;;;;;;14.38;7.97;;;;;;;;;;5011550;28;20041;-73
2024/01/18 13:49:23;;;;;;;13.43;6.03;;;;;;;;;;5029900;28;20041;-74
2024/01/18 13:51:50;;;;;;;23.77;10.02;;;;;;;;;;5028012;28;20032;-74
2024/01/18 13:54:15;;;;;;;18.42;9.05;;;;;;;;;;5032648;28;20048;-75
2024/01/18 13:56:42;;;;;;;17.02;8.82;;;;;;;;;;5025218;28;20042;-75
2024/01/18 13:59:09;;;;;;;24.02;13.13;;;;;;;;;;5022413;28;20797;-74
2024/01/18 14:01:34;;;;;;;19.98;11.50;;;;;;;;;;5012737;28;20051;-75
2024/01/18 14:04:00;;;;;;;22.17;10.98;;;;;;;;;;5029716;28;20050;-75
2024/01/18 14:06:25;;;;;;;16.05;9.40;;;;;;;;;;5029729;28;20048;-76
2024/01/18 14:08:51;;;;;;;16.90;8.00;;;;;;;;;;5032657;28;20868;-75
2024/01/18 14:11:17;;;;;;;16.17;8.43;;;;;;;;;;5026884;28;20053;-75
2024/01/18 14:13:43;;;;;;;19.38;9.52;;;;;;;;;;5024891;28;20048;-75
2024/01/18 14:16:08;;;;;;;23.27;11.45;;;;;;;;;;5023178;28;20048;-74